createdAt,value
2018-12-13T00:01:41.357Z,93.80
2018-12-13T00:04:08.829Z,94.00
2018-12-13T00:06:36.251Z,94.00
2018-12-13T00:09:06.126Z,94.00
2018-12-13T00:11:33.541Z,94.10
2018-12-13T00:14:00.994Z,94.10
2018-12-13T00:16:28.429Z,94.20
2018-12-13T00:18:55.999Z,94.30
2018-12-13T00:21:23.443Z,94.30
2018-12-13T00:23:50.869Z,94.60
2018-12-13T00:26:18.294Z,94.60
2018-12-13T00:28:45.846Z,94.60
2018-12-13T00:31:13.267Z,94.70
2018-12-13T00:33:40.699Z,94.60
2018-12-13T00:36:08.137Z,94.80
2018-12-13T00:38:36.099Z,94.70
2018-12-13T00:41:03.539Z,95.00
2018-12-13T00:43:30.991Z,95.10
2018-12-13T00:45:58.410Z,95.50
2018-12-13T00:48:25.861Z,95.40
2018-12-13T00:50:53.282Z,94.90
2018-12-13T00:53:20.737Z,95.10
2018-12-13T00:55:48.204Z,94.90
2018-12-13T00:58:15.630Z,94.90
2018-12-13T01:00:43.076Z,95.20
2018-12-13T01:03:10.590Z,95.60
2018-12-13T01:05:38.002Z,95.50
2018-12-13T01:08:05.479Z,95.30
2018-12-13T01:10:32.950Z,95.10
2018-12-13T01:13:00.533Z,95.40
2018-12-13T01:15:29.940Z,95.70
2018-12-13T01:17:57.357Z,95.80
2018-12-13T01:20:24.814Z,95.80
2018-12-13T01:22:52.271Z,95.90
2018-12-13T01:25:19.781Z,95.80
2018-12-13T01:27:47.212Z,95.80
2018-12-13T01:30:14.757Z,95.70
2018-12-13T01:32:42.208Z,95.60
2018-12-13T01:35:09.673Z,95.70
2018-12-13T01:37:37.090Z,95.40
2018-12-13T01:40:04.570Z,95.30
2018-12-13T01:42:32.039Z,95.30
2018-12-13T01:44:59.469Z,95.10
2018-12-13T01:47:26.894Z,95.10
2018-12-13T01:49:54.326Z,95.20
2018-12-13T01:52:21.762Z,95.30
2018-12-13T01:54:49.181Z,95.70
2018-12-13T01:57:17.038Z,96.10
2018-12-13T01:59:44.471Z,96.40
2018-12-13T02:02:11.892Z,96.40
2018-12-13T02:04:39.330Z,96.30
2018-12-13T02:07:06.778Z,96.40
2018-12-13T02:09:34.210Z,96.20
2018-12-13T02:12:01.638Z,96.40
2018-12-13T02:14:29.094Z,96.30
2018-12-13T02:16:56.554Z,96.30
2018-12-13T02:19:24.022Z,96.50
2018-12-13T02:21:51.447Z,96.50
2018-12-13T02:24:18.917Z,96.80
2018-12-13T02:26:47.218Z,97.20
2018-12-13T02:29:14.763Z,97.20
2018-12-13T02:31:42.213Z,97.20
2018-12-13T02:34:09.675Z,97.00
2018-12-13T02:36:37.520Z,96.90
2018-12-13T02:39:05.966Z,97.20
2018-12-13T02:41:33.413Z,96.80
2018-12-13T02:44:00.861Z,96.70
2018-12-13T02:46:28.382Z,96.70
2018-12-13T02:49:05.763Z,96.40
2018-12-13T02:51:33.442Z,96.80
2018-12-13T02:54:00.906Z,96.80
2018-12-13T02:56:28.349Z,96.50
2018-12-13T02:58:55.812Z,96.80
2018-12-13T03:01:23.750Z,96.50
2018-12-13T03:03:51.405Z,96.50
2018-12-13T03:06:18.849Z,96.60
2018-12-13T03:08:46.270Z,96.70
2018-12-13T03:11:13.718Z,96.80
2018-12-13T03:13:41.146Z,96.30
2018-12-13T03:16:08.623Z,96.70
2018-12-13T03:18:36.039Z,97.80
2018-12-13T03:21:03.493Z,97.80
2018-12-13T03:23:30.994Z,98.20
2018-12-13T03:25:58.425Z,97.70
2018-12-13T03:28:26.554Z,98.00
2018-12-13T03:30:53.992Z,98.30
2018-12-13T03:33:21.423Z,98.30
2018-12-13T03:35:48.986Z,98.30
2018-12-13T03:38:16.743Z,98.50
2018-12-13T03:40:44.165Z,98.30
2018-12-13T03:43:11.590Z,98.70
2018-12-13T03:45:39.048Z,98.50
2018-12-13T03:48:06.590Z,98.30
2018-12-13T03:50:34.068Z,98.00
2018-12-13T03:53:01.511Z,97.80
2018-12-13T03:55:29.045Z,97.90
2018-12-13T03:57:57.071Z,98.30
2018-12-13T04:00:24.523Z,98.10
2018-12-13T04:02:52.021Z,97.90
2018-12-13T04:05:19.507Z,97.80
2018-12-13T04:07:46.929Z,97.50
2018-12-13T04:10:14.369Z,97.40
2018-12-13T04:12:41.815Z,96.80
2018-12-13T04:15:09.286Z,96.80
2018-12-13T04:17:36.710Z,96.70
2018-12-13T04:20:05.121Z,96.40
2018-12-13T04:22:32.620Z,95.70
2018-12-13T04:25:00.043Z,95.70
2018-12-13T04:27:27.464Z,95.00
2018-12-13T04:29:54.940Z,94.60
2018-12-13T04:32:22.386Z,93.80
2018-12-13T04:34:49.896Z,93.60
2018-12-13T04:37:17.325Z,93.40
2018-12-13T04:39:44.762Z,93.10
2018-12-13T04:42:12.214Z,92.60
2018-12-13T04:44:39.657Z,92.40
2018-12-13T04:47:07.106Z,92.40
2018-12-13T04:49:34.566Z,92.30
2018-12-13T04:52:02.024Z,92.20
2018-12-13T04:54:29.434Z,91.90
2018-12-13T04:56:56.864Z,91.40
2018-12-13T04:59:24.309Z,90.80
2018-12-13T05:01:51.764Z,90.80
2018-12-13T05:04:19.808Z,90.80
2018-12-13T05:06:47.936Z,90.50
2018-12-13T05:09:15.451Z,90.20
2018-12-13T05:11:42.877Z,90.30
2018-12-13T05:14:10.298Z,90.20
2018-12-13T05:16:38.213Z,90.10
2018-12-13T05:19:05.646Z,89.80
2018-12-13T05:21:33.175Z,89.70
2018-12-13T05:24:00.620Z,89.80
2018-12-13T05:26:28.067Z,89.70
2018-12-13T05:28:55.487Z,89.60
2018-12-13T05:31:22.909Z,89.70
2018-12-13T05:33:50.347Z,89.90
2018-12-13T05:36:17.791Z,89.80
2018-12-13T05:38:45.230Z,89.70
2018-12-13T05:41:12.654Z,89.90
2018-12-13T05:43:40.534Z,89.90
2018-12-13T05:46:07.977Z,90.20
2018-12-13T05:48:35.418Z,90.90
2018-12-13T05:51:02.871Z,90.60
2018-12-13T05:53:30.319Z,90.80
2018-12-13T05:55:57.737Z,91.30
2018-12-13T05:58:25.197Z,90.70
2018-12-13T06:00:52.676Z,90.90
2018-12-13T06:03:20.114Z,91.10
2018-12-13T06:05:47.530Z,91.00
2018-12-13T06:08:14.978Z,91.30
2018-12-13T06:10:42.738Z,91.70
2018-12-13T06:13:10.750Z,91.90
2018-12-13T06:15:38.198Z,91.30
2018-12-13T06:18:06.952Z,91.50
2018-12-13T06:20:34.717Z,91.40
2018-12-13T06:23:02.147Z,91.40
2018-12-13T06:25:29.571Z,92.90
2018-12-13T06:27:57.107Z,92.80
2018-12-13T06:30:24.655Z,92.50
2018-12-13T06:32:52.168Z,92.40
2018-12-13T06:35:19.583Z,92.70
2018-12-13T06:37:47.357Z,93.00
2018-12-13T06:40:15.630Z,92.50
2018-12-13T06:42:43.195Z,92.30
2018-12-13T06:45:10.642Z,92.00
2018-12-13T06:47:38.106Z,91.70
2018-12-13T06:50:06.070Z,91.60
2018-12-13T06:52:33.515Z,91.50
2018-12-13T06:55:00.940Z,91.20
2018-12-13T06:57:28.429Z,91.00
2018-12-13T06:59:56.062Z,90.70
2018-12-13T07:02:23.983Z,91.00
2018-12-13T07:04:51.397Z,90.90
2018-12-13T07:07:19.418Z,91.20
2018-12-13T07:09:46.842Z,91.00
2018-12-13T07:12:14.291Z,90.60
2018-12-13T07:14:41.716Z,90.70
2018-12-13T07:17:09.141Z,90.30
2018-12-13T07:19:36.579Z,90.50
2018-12-13T07:22:04.006Z,90.40
2018-12-13T07:24:31.906Z,90.30
2018-12-13T07:26:59.349Z,90.40
2018-12-13T07:29:26.794Z,90.30
2018-12-13T07:31:54.321Z,90.00
2018-12-13T07:34:21.766Z,89.60
2018-12-13T07:36:49.295Z,89.40
2018-12-13T07:39:16.715Z,89.40
2018-12-13T07:41:44.247Z,89.80
2018-12-13T07:44:11.667Z,89.40
2018-12-13T07:46:39.599Z,89.70
2018-12-13T07:49:07.022Z,89.50
2018-12-13T07:51:34.485Z,89.40
2018-12-13T07:54:01.938Z,90.00
2018-12-13T07:56:29.662Z,90.00
2018-12-13T07:58:57.151Z,89.80
2018-12-13T08:01:24.599Z,89.50
2018-12-13T08:03:52.134Z,89.80
2018-12-13T08:06:19.551Z,89.60
2018-12-13T08:08:46.982Z,89.50
2018-12-13T08:11:14.506Z,89.40
2018-12-13T08:13:41.952Z,89.40
2018-12-13T08:16:09.391Z,89.00
2018-12-13T08:18:36.814Z,88.50
2018-12-13T08:21:04.278Z,88.80
2018-12-13T08:23:31.702Z,89.40
2018-12-13T08:25:59.179Z,88.00
2018-12-13T08:28:26.608Z,88.20
2018-12-13T08:30:54.102Z,88.00
2018-12-13T08:33:21.575Z,88.00
2018-12-13T08:35:49.021Z,88.00
2018-12-13T08:38:16.446Z,88.20
2018-12-13T08:40:43.866Z,88.30
2018-12-13T08:43:11.298Z,88.00
2018-12-13T08:45:38.734Z,88.20
2018-12-13T08:48:06.203Z,88.00
2018-12-13T08:50:33.623Z,87.70
2018-12-13T08:53:01.075Z,87.00
2018-12-13T08:55:28.509Z,87.30
2018-12-13T08:57:55.955Z,86.90
2018-12-13T09:00:23.410Z,86.80
2018-12-13T09:02:50.910Z,86.50
2018-12-13T09:05:18.354Z,86.40
2018-12-13T09:07:45.785Z,90.00
2018-12-13T09:10:13.212Z,84.50
2018-12-13T09:12:40.719Z,84.30
2018-12-13T09:15:08.175Z,84.30
2018-12-13T09:17:35.604Z,84.60
2018-12-13T09:20:03.871Z,84.10
2018-12-13T09:22:31.298Z,83.90
2018-12-13T09:24:58.950Z,83.30
2018-12-13T09:27:26.402Z,83.70
2018-12-13T09:29:53.825Z,82.90
2018-12-13T09:32:21.255Z,82.50
2018-12-13T09:34:48.682Z,82.10
2018-12-13T09:37:16.118Z,81.70
2018-12-13T09:39:43.598Z,80.60
2018-12-13T09:42:11.158Z,79.70
2018-12-13T09:44:38.630Z,79.50
2018-12-13T09:47:06.071Z,78.90
2018-12-13T09:49:33.497Z,77.40
2018-12-13T09:52:00.915Z,76.60
2018-12-13T09:54:28.458Z,76.30
2018-12-13T09:56:55.886Z,76.40
2018-12-13T09:59:24.624Z,75.30
2018-12-13T10:01:52.522Z,75.70
2018-12-13T10:04:19.969Z,74.60
2018-12-13T10:06:47.402Z,74.40
2018-12-13T10:09:14.930Z,74.30
2018-12-13T10:11:42.351Z,74.10
2018-12-13T10:14:09.814Z,73.50
2018-12-13T10:16:37.258Z,73.50
2018-12-13T10:19:04.729Z,73.30
2018-12-13T10:21:32.142Z,73.70
2018-12-13T10:23:59.578Z,73.00
2018-12-13T10:26:26.994Z,73.20
2018-12-13T10:28:54.423Z,74.00
2018-12-13T10:31:21.932Z,72.90
2018-12-13T10:33:49.393Z,72.60
2018-12-13T10:36:16.830Z,73.50
2018-12-13T10:38:44.258Z,73.30
2018-12-13T10:41:11.697Z,73.60
2018-12-13T10:43:39.132Z,73.00
2018-12-13T10:46:06.606Z,73.00
2018-12-13T10:48:34.034Z,72.30
2018-12-13T10:51:01.487Z,73.60
2018-12-13T10:53:28.916Z,74.30
2018-12-13T10:55:56.349Z,73.10
2018-12-13T10:58:23.878Z,72.30
2018-12-13T11:00:57.079Z,72.70
2018-12-13T11:03:30.614Z,72.00
2018-12-13T11:05:58.163Z,72.00
2018-12-13T11:08:25.571Z,72.30
2018-12-13T11:10:53.686Z,71.60
2018-12-13T11:13:21.127Z,72.40
2018-12-13T11:15:48.593Z,72.30
2018-12-13T11:18:16.022Z,72.60
2018-12-13T11:20:43.511Z,71.60
2018-12-13T11:23:10.946Z,72.20
2018-12-13T11:25:38.416Z,72.80
2018-12-13T11:28:17.851Z,72.10
2018-12-13T11:30:45.327Z,71.90
2018-12-13T11:33:12.804Z,73.30
2018-12-13T11:35:40.278Z,73.20
2018-12-13T11:38:08.366Z,74.20
2018-12-13T11:40:35.835Z,73.40
2018-12-13T11:43:03.374Z,73.50
2018-12-13T11:45:31.617Z,72.60
2018-12-13T11:47:59.056Z,71.60
2018-12-13T11:50:26.503Z,71.90
2018-12-13T11:52:53.945Z,72.60
2018-12-13T11:55:30.006Z,72.50
2018-12-13T11:57:57.482Z,73.00
2018-12-13T12:00:24.919Z,72.30
2018-12-13T12:02:52.362Z,71.70
2018-12-13T12:05:19.834Z,72.10
2018-12-13T12:07:47.336Z,72.60
2018-12-13T12:10:14.811Z,72.60
2018-12-13T12:12:42.254Z,72.50
2018-12-13T12:15:09.934Z,72.60
2018-12-13T12:17:37.462Z,72.10
2018-12-13T12:20:06.155Z,72.20
2018-12-13T12:22:33.594Z,72.30
2018-12-13T12:25:01.054Z,72.30
2018-12-13T12:27:28.486Z,72.10
2018-12-13T12:29:55.955Z,71.00
2018-12-13T12:32:23.415Z,70.40
2018-12-13T12:34:50.861Z,70.00
2018-12-13T12:37:18.344Z,69.80
2018-12-13T12:39:45.843Z,73.40
2018-12-13T12:42:13.350Z,66.20
2018-12-13T12:44:41.231Z,64.40
2018-12-13T12:47:08.990Z,66.20
2018-12-13T12:49:36.446Z,66.70
2018-12-13T12:52:03.918Z,69.00
2018-12-13T12:54:31.378Z,70.10
2018-12-13T12:56:59.082Z,71.70
2018-12-13T12:59:26.528Z,71.30
2018-12-13T13:01:54.128Z,71.60
2018-12-13T13:04:21.625Z,70.20
2018-12-13T13:06:49.112Z,70.70
2018-12-13T13:09:16.570Z,70.90
2018-12-13T13:11:44.028Z,70.60
2018-12-13T13:14:12.202Z,69.70
2018-12-13T13:16:39.915Z,66.70
2018-12-13T13:19:07.338Z,66.50
2018-12-13T13:21:34.754Z,67.60
2018-12-13T13:24:02.174Z,67.90
2018-12-13T13:26:29.613Z,68.70
2018-12-13T13:28:57.442Z,68.80
2018-12-13T13:31:24.889Z,69.70
2018-12-13T13:33:52.311Z,69.10
2018-12-13T13:36:19.739Z,69.70
2018-12-13T13:38:47.171Z,69.80
2018-12-13T13:41:14.614Z,69.70
2018-12-13T13:43:42.062Z,70.00
2018-12-13T13:46:09.480Z,69.60
2018-12-13T13:48:36.903Z,70.00
2018-12-13T13:51:04.364Z,70.60
2018-12-13T13:53:31.783Z,70.90
2018-12-13T13:55:59.202Z,70.70
2018-12-13T13:58:26.627Z,70.90
2018-12-13T14:00:54.066Z,70.80
2018-12-13T14:03:21.626Z,71.10
2018-12-13T14:05:49.085Z,71.70
2018-12-13T14:08:16.525Z,71.80
2018-12-13T14:10:44.046Z,71.90
2018-12-13T14:13:11.465Z,72.30
2018-12-13T14:15:38.903Z,72.30
2018-12-13T14:18:06.373Z,72.00
2018-12-13T14:20:33.804Z,72.40
2018-12-13T14:23:01.458Z,72.60
2018-12-13T14:25:28.898Z,72.60
2018-12-13T14:27:56.378Z,72.00
2018-12-13T14:30:24.507Z,71.60
2018-12-13T14:32:51.957Z,71.50
2018-12-13T14:35:19.462Z,71.90
2018-12-13T14:37:46.983Z,71.90
2018-12-13T14:40:14.438Z,71.70
2018-12-13T14:42:41.893Z,72.30
2018-12-13T14:45:09.438Z,72.30
2018-12-13T14:47:36.861Z,72.70
2018-12-13T14:50:06.127Z,72.70
2018-12-13T14:52:33.614Z,72.70
2018-12-13T14:55:01.054Z,73.50
2018-12-13T14:57:28.499Z,73.50
2018-12-13T14:59:55.938Z,73.10
2018-12-13T15:02:23.381Z,73.90
2018-12-13T15:04:51.146Z,74.60
2018-12-13T15:07:18.592Z,74.20
2018-12-13T15:09:50.804Z,73.90
2018-12-13T15:12:15.423Z,74.10
2018-12-13T15:14:43.150Z,74.20
2018-12-13T15:17:10.582Z,74.40
2018-12-13T15:19:38.013Z,73.00
2018-12-13T15:22:05.446Z,73.10
2018-12-13T15:24:32.890Z,73.80
2018-12-13T15:27:00.434Z,74.50
2018-12-13T15:29:27.854Z,74.90
2018-12-13T15:31:59.347Z,75.30
2018-12-13T15:34:24.715Z,75.50
2018-12-13T15:36:52.155Z,75.90
2018-12-13T15:39:19.574Z,75.80
2018-12-13T15:41:46.989Z,76.30
2018-12-13T15:44:14.422Z,76.60
2018-12-13T15:46:42.642Z,77.20
2018-12-13T15:49:10.066Z,77.20
2018-12-13T15:51:37.496Z,77.50
2018-12-13T15:54:04.967Z,77.20
2018-12-13T15:56:32.381Z,77.80
2018-12-13T15:58:59.900Z,77.70
2018-12-13T16:01:27.420Z,78.10
2018-12-13T16:03:54.900Z,78.10
2018-12-13T16:06:22.398Z,78.20
2018-12-13T16:08:49.826Z,78.10
2018-12-13T16:11:17.351Z,81.90
2018-12-13T16:13:44.770Z,80.10
2018-12-13T16:16:12.246Z,74.00
2018-12-13T16:18:39.670Z,75.00
2018-12-13T16:21:07.094Z,76.10
2018-12-13T16:23:34.538Z,76.70
2018-12-13T16:26:01.957Z,77.00
2018-12-13T16:28:29.454Z,77.20
2018-12-13T16:30:56.942Z,77.70
2018-12-13T16:33:24.390Z,77.10
2018-12-13T16:35:51.809Z,77.30
2018-12-13T16:38:19.410Z,77.20
2018-12-13T16:40:46.849Z,77.20
2018-12-13T16:43:14.739Z,77.60
2018-12-13T16:45:42.178Z,77.70
2018-12-13T16:48:09.953Z,78.10
2018-12-13T16:50:37.484Z,78.00
2018-12-13T16:53:05.441Z,78.00
2018-12-13T16:55:32.909Z,78.30
2018-12-13T16:58:00.329Z,78.00
2018-12-13T17:00:27.794Z,78.70
2018-12-13T17:02:55.216Z,78.60
2018-12-13T17:05:22.669Z,79.30
2018-12-13T17:07:50.100Z,79.40
2018-12-13T17:10:17.530Z,79.90
2018-12-13T17:12:44.965Z,79.00
2018-12-13T17:15:12.398Z,79.50
2018-12-13T17:17:39.981Z,79.30
2018-12-13T17:20:07.432Z,79.10
2018-12-13T17:22:34.863Z,78.60
2018-12-13T17:25:02.311Z,78.70
2018-12-13T17:27:29.750Z,78.50
2018-12-13T17:29:57.170Z,79.20
2018-12-13T17:32:24.594Z,78.80
2018-12-13T17:34:52.067Z,78.70
2018-12-13T17:37:19.481Z,79.70
2018-12-13T17:39:46.980Z,78.40
2018-12-13T17:42:14.446Z,77.80
2018-12-13T17:44:41.858Z,77.10
2018-12-13T17:47:09.286Z,76.90
2018-12-13T17:49:36.706Z,77.00
2018-12-13T17:52:04.186Z,77.50
2018-12-13T17:54:31.630Z,77.50
2018-12-13T17:56:59.063Z,77.90
2018-12-13T17:59:26.485Z,78.30
2018-12-13T18:01:54.006Z,78.20
2018-12-13T18:04:21.432Z,77.80
2018-12-13T18:09:22.765Z,78.40
2018-12-13T18:11:50.239Z,78.30
2018-12-13T18:14:17.665Z,78.00
2018-12-13T18:16:45.118Z,78.20
2018-12-13T18:19:12.533Z,78.60
2018-12-13T18:21:39.994Z,78.80
2018-12-13T18:24:07.438Z,79.70
2018-12-13T18:26:34.879Z,80.30
2018-12-13T18:29:02.362Z,80.10
2018-12-13T18:31:29.806Z,81.00
2018-12-13T18:33:57.289Z,81.30
2018-12-13T18:36:24.713Z,82.00
2018-12-13T18:38:52.161Z,82.00
2018-12-13T18:41:19.631Z,82.20
2018-12-13T18:43:47.072Z,82.40
2018-12-13T18:46:14.501Z,82.60
2018-12-13T18:48:42.002Z,82.90
2018-12-13T18:51:09.450Z,82.80
2018-12-13T18:53:36.954Z,82.80
2018-12-13T18:56:04.420Z,83.20
2018-12-13T18:58:31.854Z,83.80
2018-12-13T19:00:59.301Z,84.10
2018-12-13T19:03:26.865Z,84.60
2018-12-13T19:05:54.310Z,84.40
2018-12-13T19:08:22.086Z,83.90
2018-12-13T19:10:49.526Z,84.00
2018-12-13T19:13:17.019Z,83.80
2018-12-13T19:15:44.475Z,83.80
2018-12-13T19:18:11.895Z,84.80
2018-12-13T19:20:39.334Z,85.00
2018-12-13T19:23:06.836Z,85.40
2018-12-13T19:25:34.427Z,85.60
2018-12-13T19:28:01.843Z,85.80
2018-12-13T19:30:29.322Z,84.50
2018-12-13T19:32:56.743Z,84.30
2018-12-13T19:35:24.178Z,82.80
2018-12-13T19:37:51.701Z,83.30
2018-12-13T19:40:19.191Z,83.10
2018-12-13T19:42:46.610Z,83.20
2018-12-13T19:45:14.110Z,82.90
2018-12-13T19:47:41.503Z,83.00
2018-12-13T19:50:09.717Z,83.60
2018-12-13T19:52:37.358Z,83.10
2018-12-13T19:55:06.563Z,82.50
2018-12-13T19:57:34.014Z,82.30
2018-12-13T20:00:01.483Z,82.30
2018-12-13T20:02:28.979Z,82.60
2018-12-13T20:04:56.410Z,83.90
2018-12-13T20:07:24.119Z,85.00
2018-12-13T20:09:51.613Z,85.50
2018-12-13T20:12:19.084Z,85.50
2018-12-13T20:17:25.666Z,85.80
2018-12-13T20:19:53.158Z,86.00
2018-12-13T20:22:20.590Z,85.60
2018-12-13T20:24:48.049Z,85.50
2018-12-13T20:27:15.513Z,85.70
2018-12-13T20:29:43.203Z,85.30
2018-12-13T20:32:10.778Z,85.20
2018-12-13T20:34:38.234Z,86.10
2018-12-13T20:37:05.714Z,86.10
2018-12-13T20:39:33.149Z,85.90
2018-12-13T20:42:01.481Z,86.80
2018-12-13T20:44:29.663Z,86.20
2018-12-13T20:46:57.108Z,87.00
2018-12-13T20:49:24.564Z,86.30
2018-12-13T20:51:52.006Z,87.10
2018-12-13T20:54:19.457Z,87.10
2018-12-13T20:56:46.907Z,87.40
2018-12-13T20:59:14.334Z,87.50
2018-12-13T21:01:41.826Z,87.00
2018-12-13T21:04:09.255Z,87.40
2018-12-13T21:06:36.698Z,87.70
2018-12-13T21:09:05.563Z,87.10
2018-12-13T21:11:33.027Z,86.90
2018-12-13T21:14:00.488Z,87.30
2018-12-13T21:16:28.030Z,87.40
2018-12-13T21:18:55.485Z,87.50
2018-12-13T21:21:22.968Z,87.20
2018-12-13T21:23:50.402Z,87.10
2018-12-13T21:26:17.872Z,87.10
2018-12-13T21:28:45.335Z,87.00
2018-12-13T21:31:12.881Z,86.30
2018-12-13T21:33:40.309Z,86.80
2018-12-13T21:36:07.750Z,84.80
2018-12-13T21:38:35.182Z,82.00
2018-12-13T21:41:02.627Z,80.50
2018-12-13T21:43:30.069Z,80.90
2018-12-13T21:45:57.522Z,79.40
2018-12-13T21:48:24.964Z,79.20
2018-12-13T21:50:52.406Z,79.20
2018-12-13T21:53:19.986Z,79.90
2018-12-13T21:55:47.446Z,79.80
2018-12-13T21:58:14.910Z,79.30
2018-12-13T22:00:42.364Z,78.90
2018-12-13T22:03:09.802Z,79.20
2018-12-13T22:05:37.649Z,79.20
2018-12-13T22:08:05.160Z,79.50
2018-12-13T22:10:32.594Z,79.80
2018-12-13T22:13:00.068Z,79.10
2018-12-13T22:15:28.459Z,79.20
2018-12-13T22:17:55.889Z,79.50
2018-12-13T22:20:23.346Z,79.80
2018-12-13T22:22:50.814Z,79.30
2018-12-13T22:25:18.294Z,79.30
2018-12-13T22:27:45.755Z,79.60
2018-12-13T22:30:13.224Z,79.50
2018-12-13T22:32:40.906Z,79.60
2018-12-13T22:35:08.333Z,79.20
2018-12-13T22:37:35.874Z,80.30
2018-12-13T22:40:03.650Z,79.70
2018-12-13T22:42:31.123Z,79.50
2018-12-13T22:44:58.586Z,79.60
2018-12-13T22:47:26.277Z,79.30
2018-12-13T22:49:53.817Z,79.80
2018-12-13T22:52:21.287Z,79.50
2018-12-13T22:54:48.754Z,79.50
2018-12-13T22:57:16.269Z,79.30
2018-12-13T22:59:43.741Z,79.30
2018-12-13T23:02:11.195Z,79.00
2018-12-13T23:04:38.690Z,79.40
2018-12-13T23:07:06.144Z,79.10
2018-12-13T23:09:33.585Z,78.80
2018-12-13T23:12:01.033Z,78.10
2018-12-13T23:14:28.474Z,78.00
2018-12-13T23:16:55.906Z,78.50
2018-12-13T23:19:23.354Z,79.00
2018-12-13T23:21:50.822Z,78.40
2018-12-13T23:24:18.277Z,79.00
2018-12-13T23:26:45.719Z,79.50
2018-12-13T23:29:13.158Z,80.20
2018-12-13T23:31:40.586Z,80.70
2018-12-13T23:34:08.037Z,80.60
2018-12-13T23:36:35.496Z,81.00
2018-12-13T23:39:03.994Z,81.70
2018-12-13T23:41:31.505Z,82.00
2018-12-13T23:43:58.936Z,82.30
2018-12-13T23:46:26.419Z,82.90
2018-12-13T23:48:55.586Z,83.50
2018-12-13T23:51:23.054Z,83.80
2018-12-13T23:53:50.486Z,84.00
2018-12-13T23:56:17.955Z,84.10
2018-12-13T23:58:45.513Z,84.30
